Time;durP1;ratioP1;P1;durP2;ratioP2;P2;SDS_P1;SDS_P2;PMS_P1;PMS_P2;Temp;Humidity;BMP_temperature;BMP_pressure;BME280_temperature;BME280_humidity;BME280_pressure;Samples;Min_cycle;Max_cycle;Signal;HPM_P1;HPM_P2
2021/08/19 00:01:20;;;;;;;10.65;6.18;;;15.20;89.30;;;;;;5044077;28;20386;-70
2021/08/19 00:03:46;;;;;;;13.40;6.50;;;15.20;89.40;;;;;;5041503;28;20033;-68
2021/08/19 00:06:12;;;;;;;9.57;5.93;;;15.20;89.00;;;;;;5048323;28;20096;-69
2021/08/19 00:08:38;;;;;;;10.95;5.85;;;15.20;89.10;;;;;;5045833;28;20040;-68
2021/08/19 00:11:04;;;;;;;12.13;5.97;;;15.30;89.00;;;;;;5032860;28;20021;-68
2021/08/19 00:13:29;;;;;;;9.38;5.68;;;15.20;89.00;;;;;;5044728;28;20037;-69
2021/08/19 00:15:56;;;;;;;10.30;6.38;;;15.30;88.90;;;;;;5045071;28;20029;-68
2021/08/19 00:18:23;;;;;;;9.18;5.72;;;15.30;88.90;;;;;;5041593;28;20036;-70
2021/08/19 00:20:49;;;;;;;10.88;5.88;;;15.30;88.80;;;;;;5043047;28;20176;-69
2021/08/19 00:23:15;;;;;;;13.40;5.97;;;15.30;88.60;;;;;;5044969;28;20086;-68
2021/08/19 00:25:42;;;;;;;9.95;5.78;;;15.30;88.50;;;;;;5042960;28;20155;-69
2021/08/19 00:28:07;;;;;;;10.55;5.40;;;15.30;88.50;;;;;;5030282;28;20542;-69
2021/08/19 00:30:33;;;;;;;9.48;5.50;;;15.30;88.40;;;;;;5044760;28;20032;-68
2021/08/19 00:32:59;;;;;;;11.75;6.18;;;15.30;88.30;;;;;;5043595;28;20078;-70
2021/08/19 00:35:25;;;;;;;11.10;5.60;;;15.20;88.30;;;;;;5043123;28;20036;-69
2021/08/19 00:37:50;;;;;;;10.20;6.07;;;15.10;88.60;;;;;;5047147;28;20037;-68
2021/08/19 00:40:16;;;;;;;12.05;5.75;;;15.10;88.70;;;;;;5048725;28;20096;-70
2021/08/19 00:42:42;;;;;;;9.60;5.55;;;15.00;88.80;;;;;;5044075;28;20029;-69
2021/08/19 00:45:08;;;;;;;10.13;5.90;;;15.10;88.50;;;;;;5044122;28;20268;-70
2021/08/19 00:47:38;;;;;;;8.63;5.97;;;15.10;88.50;;;;;;5047816;28;20426;-68
2021/08/19 00:50:04;;;;;;;7.30;5.57;;;15.00;88.70;;;;;;5048275;28;20626;-68
2021/08/19 00:52:31;;;;;;;11.18;6.07;;;15.00;88.70;;;;;;5046920;28;20040;-69
2021/08/19 00:54:58;;;;;;;10.05;6.25;;;15.00;88.60;;;;;;5047405;28;20029;-69
2021/08/19 00:57:23;;;;;;;10.48;6.10;;;15.00;88.60;;;;;;5042892;28;20100;-68
2021/08/19 00:59:52;;;;;;;9.13;6.22;;;14.90;88.90;;;;;;5044547;28;20149;-68
2021/08/19 01:02:21;;;;;;;9.23;6.93;;;14.80;89.00;;;;;;5048954;28;20048;-69
2021/08/19 01:04:47;;;;;;;9.95;7.03;;;14.80;89.20;;;;;;5040316;28;20111;-68
2021/08/19 01:07:14;;;;;;;11.88;6.43;;;14.80;89.30;;;;;;5043582;28;20110;-68
2021/08/19 01:09:41;;;;;;;11.30;7.57;;;14.80;89.20;;;;;;5044793;28;20434;-68
2021/08/19 01:12:09;;;;;;;11.95;7.00;;;14.90;89.10;;;;;;5044480;28;20841;-67
2021/08/19 01:14:35;;;;;;;10.25;7.00;;;14.90;89.20;;;;;;5045712;28;20061;-68
2021/08/19 01:17:08;;;;;;;10.70;7.28;;;14.90;89.00;;;;;;5042382;28;20098;-68
2021/08/19 01:19:34;;;;;;;14.32;8.48;;;14.90;89.20;;;;;;5045529;28;20029;-68
2021/08/19 01:22:00;;;;;;;11.70;7.93;;;14.90;89.20;;;;;;5042038;28;20085;-70
2021/08/19 01:24:25;;;;;;;11.27;7.22;;;14.90;89.20;;;;;;5045822;28;20029;-68
2021/08/19 01:26:53;;;;;;;10.52;8.00;;;14.80;89.30;;;;;;5043056;28;20148;-67
2021/08/19 01:29:18;;;;;;;12.93;8.43;;;14.70;89.90;;;;;;5042540;28;20056;-68
2021/08/19 01:32:02;;;;;;;12.55;8.65;;;14.60;90.10;;;;;;5043184;28;20513;-68
2021/08/19 01:34:28;;;;;;;15.93;9.00;;;14.60;90.30;;;;;;5043623;28;20136;-68
2021/08/19 01:36:55;;;;;;;14.07;9.68;;;14.60;90.50;;;;;;5036525;28;20474;-68
2021/08/19 01:39:20;;;;;;;14.07;9.30;;;14.60;90.60;;;;;;5039170;28;20374;-68
2021/08/19 01:41:46;;;;;;;16.95;9.93;;;14.50;90.80;;;;;;5024636;28;20110;-69
2021/08/19 01:44:12;;;;;;;14.15;8.95;;;14.50;90.90;;;;;;5042582;28;20021;-69
2021/08/19 01:46:38;;;;;;;13.23;9.60;;;14.50;91.10;;;;;;5043105;28;20157;-70
2021/08/19 01:49:03;;;;;;;21.30;10.70;;;14.40;91.30;;;;;;5043779;28;20124;-66
2021/08/19 01:51:29;;;;;;;13.30;10.48;;;14.30;91.70;;;;;;5044345;28;20036;-70
2021/08/19 01:53:54;;;;;;;16.50;10.00;;;14.30;91.80;;;;;;5043926;28;20116;-68
2021/08/19 01:56:24;;;;;;;16.55;10.38;;;14.30;91.80;;;;;;5044054;28;20104;-69
2021/08/19 01:58:51;;;;;;;18.42;11.00;;;14.20;92.10;;;;;;5047081;28;20051;-68
2021/08/19 02:01:21;;;;;;;15.77;10.88;;;14.20;92.30;;;;;;5043089;28;20332;-68
2021/08/19 02:03:47;;;;;;;13.48;10.82;;;14.10;92.50;;;;;;5042284;28;20051;-69
2021/08/19 02:06:13;;;;;;;15.73;10.70;;;14.10;92.60;;;;;;5043512;28;20305;-68
2021/08/19 02:08:38;;;;;;;15.30;9.95;;;14.10;92.60;;;;;;5040758;28;20073;-69
2021/08/19 02:11:04;;;;;;;14.00;9.88;;;14.10;92.70;;;;;;5045083;28;20017;-67
2021/08/19 02:13:29;;;;;;;11.60;9.50;;;14.10;92.70;;;;;;5042827;28;20417;-68
2021/08/19 02:15:55;;;;;;;12.30;9.43;;;14.10;92.80;;;;;;5039916;28;20028;-68
2021/08/19 02:18:21;;;;;;;11.27;8.75;;;14.10;92.80;;;;;;5041218;28;20021;-69
2021/08/19 02:20:46;;;;;;;13.82;9.20;;;14.10;92.90;;;;;;5046312;28;20025;-68
2021/08/19 02:23:12;;;;;;;16.05;9.77;;;14.10;93.00;;;;;;5043224;28;20028;-70
2021/08/19 02:25:38;;;;;;;14.88;9.95;;;14.10;93.00;;;;;;5045000;28;20361;-68
2021/08/19 02:28:03;;;;;;;12.65;9.38;;;14.00;93.10;;;;;;5041969;28;20025;-69
2021/08/19 02:30:29;;;;;;;12.00;8.98;;;14.10;93.20;;;;;;5042363;28;20053;-69
2021/08/19 02:32:57;;;;;;;11.98;8.75;;;14.00;93.20;;;;;;5017805;28;20044;-71
2021/08/19 02:35:27;;;;;;;12.70;9.75;;;14.00;93.50;;;;;;5044697;28;20215;-68
2021/08/19 02:37:59;;;;;;;15.88;10.35;;;14.00;93.70;;;;;;5026813;28;20136;-68
2021/08/19 02:40:26;;;;;;;12.93;9.77;;;14.00;93.90;;;;;;5047223;28;20035;-69
2021/08/19 02:42:52;;;;;;;14.55;9.75;;;14.00;93.60;;;;;;5032440;28;20128;-68
2021/08/19 02:45:18;;;;;;;13.52;9.93;;;14.00;93.60;;;;;;5046383;28;20036;-70
2021/08/19 02:47:44;;;;;;;13.52;9.63;;;14.10;93.60;;;;;;5045978;28;20124;-70
2021/08/19 02:50:10;;;;;;;15.27;9.88;;;14.10;93.40;;;;;;5051121;28;20056;-68
2021/08/19 02:52:36;;;;;;;13.70;9.07;;;14.10;93.30;;;;;;5043435;28;20120;-69
2021/08/19 02:55:02;;;;;;;15.20;9.02;;;14.10;93.30;;;;;;5044642;28;20111;-69
2021/08/19 02:57:28;;;;;;;13.40;9.32;;;14.20;93.40;;;;;;5049725;28;20114;-69
2021/08/19 02:59:53;;;;;;;13.40;8.90;;;14.30;93.20;;;;;;5052597;28;20021;-68
2021/08/19 03:02:19;;;;;;;13.35;8.40;;;14.30;93.00;;;;;;5051517;28;20108;-70
2021/08/19 03:04:44;;;;;;;12.90;8.98;;;14.40;92.90;;;;;;5045587;28;20021;-68
2021/08/19 03:07:11;;;;;;;14.40;9.27;;;14.40;92.90;;;;;;5044106;28;20030;-68
2021/08/19 03:09:38;;;;;;;13.73;9.15;;;14.40;92.90;;;;;;5045143;28;20116;-68
2021/08/19 03:12:04;;;;;;;11.93;8.75;;;14.30;92.90;;;;;;5047675;28;20384;-68
2021/08/19 03:14:31;;;;;;;15.30;9.43;;;14.30;93.00;;;;;;5047945;28;20025;-69
2021/08/19 03:16:57;;;;;;;13.10;8.90;;;14.30;93.00;;;;;;5044565;28;20465;-69
2021/08/19 03:19:22;;;;;;;11.63;8.60;;;14.30;93.10;;;;;;5046188;28;20086;-69
2021/08/19 03:21:48;;;;;;;14.00;8.57;;;14.30;93.30;;;;;;5046295;28;20043;-69
2021/08/19 03:24:13;;;;;;;20.60;9.80;;;14.30;93.40;;;;;;5041029;28;20028;-71
2021/08/19 03:26:40;;;;;;;14.73;8.95;;;14.20;93.60;;;;;;5045053;28;20037;-69
2021/08/19 03:29:06;;;;;;;14.60;9.02;;;14.10;93.80;;;;;;5050172;28;20267;-67
2021/08/19 03:31:32;;;;;;;14.32;8.75;;;14.10;93.90;;;;;;5045076;28;20250;-68
2021/08/19 03:33:57;;;;;;;14.15;9.73;;;14.10;94.00;;;;;;5051749;28;20049;-69
2021/08/19 03:36:24;;;;;;;17.13;9.52;;;14.10;94.00;;;;;;5044892;28;20131;-69
2021/08/19 03:38:50;;;;;;;15.50;10.05;;;14.10;94.10;;;;;;5045891;28;20029;-69
2021/08/19 03:41:16;;;;;;;17.10;9.63;;;14.10;94.20;;;;;;5049394;28;20100;-69
2021/08/19 03:43:44;;;;;;;15.32;9.15;;;14.10;94.30;;;;;;5043827;28;20184;-68
2021/08/19 03:46:10;;;;;;;15.38;9.80;;;14.00;94.40;;;;;;5046474;28;20032;-70
2021/08/19 03:48:35;;;;;;;14.05;9.98;;;14.00;94.40;;;;;;5045022;28;20021;-67
2021/08/19 03:51:01;;;;;;;16.15;9.45;;;14.10;94.50;;;;;;5046777;28;20029;-69
2021/08/19 03:53:27;;;;;;;15.60;10.18;;;14.10;94.60;;;;;;5045395;28;20033;-68
2021/08/19 03:55:52;;;;;;;17.60;9.75;;;14.10;94.50;;;;;;5045414;28;20029;-69
2021/08/19 03:58:18;;;;;;;13.90;9.93;;;14.00;94.60;;;;;;5045358;28;20090;-68
2021/08/19 04:00:46;;;;;;;16.65;9.63;;;14.00;94.80;;;;;;5045971;28;20116;-68
2021/08/19 04:03:12;;;;;;;19.38;10.13;;;14.00;94.90;;;;;;5044537;28;20055;-71
2021/08/19 04:05:38;;;;;;;14.65;10.05;;;13.90;95.00;;;;;;5036161;28;20448;-69
2021/08/19 04:08:03;;;;;;;17.42;10.88;;;13.90;95.00;;;;;;5045420;28;20088;-69
2021/08/19 04:10:29;;;;;;;16.95;10.60;;;14.00;95.00;;;;;;5045264;28;20509;-68
2021/08/19 04:12:55;;;;;;;20.95;10.70;;;14.00;95.10;;;;;;5044486;28;20028;-69
2021/08/19 04:15:20;;;;;;;15.13;10.65;;;14.00;95.10;;;;;;5048830;28;20037;-68
2021/08/19 04:17:46;;;;;;;17.88;11.32;;;14.00;95.20;;;;;;5044388;28;20434;-70
2021/08/19 04:20:12;;;;;;;16.63;10.52;;;14.10;95.10;;;;;;5028164;28;20032;-68
2021/08/19 04:22:37;;;;;;;16.05;10.38;;;14.10;95.10;;;;;;5045264;28;20241;-68
2021/08/19 04:25:03;;;;;;;14.80;9.75;;;14.10;95.00;;;;;;5045225;28;20322;-69
2021/08/19 04:27:29;;;;;;;13.90;9.55;;;14.10;95.00;;;;;;5044587;28;20105;-70
2021/08/19 04:29:54;;;;;;;16.05;9.52;;;14.10;95.10;;;;;;5049028;28;20270;-69
2021/08/19 04:32:20;;;;;;;13.45;10.25;;;14.10;95.00;;;;;;5044926;28;20044;-69
2021/08/19 04:34:46;;;;;;;13.65;10.23;;;14.20;94.90;;;;;;5044944;28;20052;-68
2021/08/19 04:37:11;;;;;;;17.05;10.50;;;14.30;94.90;;;;;;5026747;28;20120;-68
2021/08/19 04:39:37;;;;;;;15.65;9.55;;;14.30;94.80;;;;;;5045063;28;20079;-68
2021/08/19 04:42:03;;;;;;;14.82;9.75;;;14.30;94.80;;;;;;5040681;28;20052;-69
2021/08/19 04:44:28;;;;;;;15.57;9.27;;;14.40;94.80;;;;;;5037220;28;20048;-69
2021/08/19 04:46:54;;;;;;;12.45;9.90;;;14.50;94.60;;;;;;5046796;28;20025;-70
2021/08/19 04:49:19;;;;;;;15.00;8.75;;;14.50;94.50;;;;;;5044330;28;20095;-70
2021/08/19 04:51:45;;;;;;;17.67;9.00;;;14.50;94.40;;;;;;5043756;28;20059;-69
2021/08/19 04:54:11;;;;;;;15.35;9.40;;;14.50;94.40;;;;;;5044400;28;20025;-69
2021/08/19 04:56:37;;;;;;;15.50;9.55;;;14.50;94.30;;;;;;5044152;28;20033;-69
2021/08/19 04:59:08;;;;;;;16.58;9.52;;;14.50;94.30;;;;;;5043134;28;20052;-72
2021/08/19 05:01:34;;;;;;;13.95;8.85;;;14.60;94.20;;;;;;5040270;28;20117;-69
2021/08/19 05:04:00;;;;;;;16.10;8.15;;;14.60;94.10;;;;;;5044474;28;20059;-69
2021/08/19 05:06:27;;;;;;;13.05;8.85;;;14.70;94.10;;;;;;5044424;28;20551;-68
2021/08/19 05:08:54;;;;;;;15.07;8.35;;;14.60;94.10;;;;;;5043787;28;20033;-69
2021/08/19 05:11:21;;;;;;;12.15;8.07;;;14.70;94.10;;;;;;5044002;28;20024;-69
2021/08/19 05:13:46;;;;;;;14.02;8.35;;;14.70;94.20;;;;;;5041735;28;20029;-70
2021/08/19 05:16:12;;;;;;;11.82;7.90;;;14.70;94.20;;;;;;5042315;28;20564;-70
2021/08/19 05:18:39;;;;;;;14.23;7.60;;;14.70;94.30;;;;;;5042687;28;20037;-67
2021/08/19 05:21:04;;;;;;;13.50;7.63;;;14.70;94.30;;;;;;5044257;28;20039;-70
2021/08/19 05:23:30;;;;;;;10.98;7.75;;;14.70;94.20;;;;;;5031358;28;20613;-70
2021/08/19 05:25:55;;;;;;;11.10;8.13;;;14.70;94.10;;;;;;5048297;28;20039;-68
2021/08/19 05:28:21;;;;;;;11.63;7.40;;;14.80;94.10;;;;;;5045945;28;20064;-72
2021/08/19 05:30:47;;;;;;;11.27;6.63;;;14.80;94.10;;;;;;5041952;28;20024;-68
2021/08/19 05:33:12;;;;;;;12.00;7.45;;;14.90;93.80;;;;;;5033074;28;20036;-68
2021/08/19 05:35:38;;;;;;;14.48;7.88;;;14.90;93.80;;;;;;5049373;28;20052;-69
2021/08/19 05:38:03;;;;;;;14.57;8.00;;;15.00;94.10;;;;;;5043889;28;20054;-71
2021/08/19 05:40:29;;;;;;;15.43;7.82;;;14.90;94.30;;;;;;5043851;28;20033;-69
2021/08/19 05:42:55;;;;;;;13.02;7.32;;;14.90;94.20;;;;;;5043025;28;20086;-70
2021/08/19 05:45:20;;;;;;;10.27;7.53;;;15.00;94.20;;;;;;5043682;28;20017;-69
2021/08/19 05:47:46;;;;;;;12.15;8.00;;;15.00;94.10;;;;;;5047118;28;20415;-70
2021/08/19 05:50:11;;;;;;;14.38;7.70;;;15.10;94.10;;;;;;5047001;28;20436;-69
2021/08/19 05:52:38;;;;;;;13.40;7.03;;;15.10;93.90;;;;;;5041985;28;20040;-69
2021/08/19 05:55:05;;;;;;;11.30;7.30;;;15.20;93.60;;;;;;5042058;28;20033;-70
2021/08/19 05:57:31;;;;;;;14.27;7.05;;;15.30;93.40;;;;;;5046674;28;20134;-68
2021/08/19 05:59:56;;;;;;;9.95;6.45;;;15.20;92.70;;;;;;5043815;28;20136;-69
2021/08/19 06:02:22;;;;;;;11.40;6.30;;;15.30;92.70;;;;;;5045334;28;20029;-68
2021/08/19 06:04:47;;;;;;;11.45;6.30;;;15.30;92.30;;;;;;5043481;28;20093;-71
2021/08/19 06:07:13;;;;;;;11.50;6.60;;;15.50;92.50;;;;;;5048750;28;20089;-70
2021/08/19 06:09:38;;;;;;;9.32;6.20;;;15.50;92.10;;;;;;5044050;28;20029;-67
2021/08/19 06:12:05;;;;;;;10.68;6.40;;;15.50;92.00;;;;;;5043582;28;20421;-69
2021/08/19 06:14:30;;;;;;;10.48;6.30;;;15.50;91.70;;;;;;5050982;28;20033;-69
2021/08/19 06:16:56;;;;;;;13.07;6.10;;;15.50;91.30;;;;;;5044579;28;20482;-68
2021/08/19 06:19:21;;;;;;;12.95;6.45;;;15.60;91.50;;;;;;5047202;28;20033;-68
2021/08/19 06:21:47;;;;;;;13.75;5.78;;;15.60;91.60;;;;;;5047606;28;20033;-69
2021/08/19 06:24:13;;;;;;;10.68;6.22;;;15.70;91.50;;;;;;5046276;28;20032;-70
2021/08/19 06:26:39;;;;;;;11.75;5.75;;;15.70;91.20;;;;;;5052915;28;20544;-68
2021/08/19 06:29:04;;;;;;;10.55;5.60;;;15.80;91.00;;;;;;5047328;28;20026;-68
2021/08/19 06:31:30;;;;;;;9.82;5.68;;;15.80;90.90;;;;;;5047975;28;20024;-69
2021/08/19 06:33:55;;;;;;;11.43;5.82;;;15.80;91.20;;;;;;5048161;28;20194;-71
2021/08/19 06:36:21;;;;;;;13.25;5.72;;;15.90;91.20;;;;;;5046838;28;20029;-69
2021/08/19 06:38:52;;;;;;;10.50;5.63;;;15.90;90.70;;;;;;5047415;28;20071;-69
2021/08/19 06:41:18;;;;;;;11.27;5.57;;;15.90;90.50;;;;;;5047208;28;20040;-68
2021/08/19 06:43:43;;;;;;;8.68;5.47;;;16.00;90.30;;;;;;5047045;28;20465;-68
2021/08/19 06:46:09;;;;;;;10.77;5.78;;;16.10;90.00;;;;;;5046301;28;20029;-69
2021/08/19 06:48:35;;;;;;;10.52;5.57;;;16.20;89.90;;;;;;5028658;28;20017;-68
2021/08/19 06:51:00;;;;;;;8.77;4.80;;;16.20;89.90;;;;;;5045537;28;20016;-70
2021/08/19 06:53:26;;;;;;;9.93;5.00;;;16.20;89.50;;;;;;5046396;28;20438;-69
2021/08/19 06:55:51;;;;;;;10.95;5.00;;;16.10;89.40;;;;;;5047519;28;20160;-69
2021/08/19 06:58:17;;;;;;;10.00;4.70;;;16.10;89.50;;;;;;5046903;28;20025;-69
2021/08/19 07:00:42;;;;;;;7.28;4.55;;;16.10;89.60;;;;;;5045980;28;20033;-69
2021/08/19 07:03:13;;;;;;;6.70;4.53;;;16.10;89.40;;;;;;5042910;28;20037;-69
2021/08/19 07:05:38;;;;;;;9.35;4.60;;;16.10;89.30;;;;;;5045988;28;20052;-69
2021/08/19 07:08:04;;;;;;;7.50;4.75;;;16.00;89.20;;;;;;5027595;28;20067;-71
2021/08/19 07:10:29;;;;;;;12.60;5.00;;;16.00;89.80;;;;;;5046853;28;20025;-68
2021/08/19 07:12:55;;;;;;;11.00;4.80;;;16.10;89.40;;;;;;5028211;28;20044;-72
2021/08/19 07:15:21;;;;;;;8.95;4.78;;;16.20;89.10;;;;;;5046491;28;20025;-69
2021/08/19 07:17:46;;;;;;;6.43;4.63;;;16.40;88.70;;;;;;5042388;28;20413;-70
2021/08/19 07:20:12;;;;;;;10.32;4.75;;;16.50;88.20;;;;;;5045359;28;20052;-70
2021/08/19 07:22:38;;;;;;;9.48;5.07;;;16.70;87.50;;;;;;5047780;28;20060;-69
2021/08/19 07:25:03;;;;;;;9.30;4.60;;;16.70;86.80;;;;;;5045776;28;20028;-69
2021/08/19 07:27:29;;;;;;;11.10;5.32;;;16.90;86.60;;;;;;5046556;28;20086;-71
2021/08/19 07:29:55;;;;;;;7.53;5.20;;;17.00;86.40;;;;;;5046366;28;20024;-70
2021/08/19 07:32:20;;;;;;;8.02;4.72;;;16.80;86.20;;;;;;5045594;28;20100;-69
2021/08/19 07:34:49;;;;;;;10.75;5.15;;;16.70;86.50;;;;;;5025784;28;20033;-69
2021/08/19 07:37:15;;;;;;;11.68;5.22;;;16.70;86.60;;;;;;5050458;28;20091;-68
2021/08/19 07:39:41;;;;;;;8.90;5.13;;;16.50;86.70;;;;;;5046402;28;20859;-69
2021/08/19 07:42:07;;;;;;;12.80;5.75;;;16.50;87.00;;;;;;5044441;28;20021;-68
2021/08/19 07:44:32;;;;;;;8.15;5.70;;;16.50;87.10;;;;;;5041078;28;20033;-69
2021/08/19 07:46:58;;;;;;;12.77;5.85;;;16.60;87.60;;;;;;5045057;28;20099;-69
2021/08/19 07:49:23;;;;;;;9.88;5.43;;;16.80;87.20;;;;;;5050293;28;20024;-69
2021/08/19 07:51:49;;;;;;;9.82;5.13;;;16.90;86.50;;;;;;5044284;28;20219;-70
2021/08/19 07:54:16;;;;;;;10.18;6.05;;;17.10;85.90;;;;;;5045759;28;20025;-69
2021/08/19 07:56:42;;;;;;;9.73;5.20;;;17.40;84.60;;;;;;5045133;28;20033;-70
2021/08/19 07:59:07;;;;;;;11.95;5.25;;;17.60;84.10;;;;;;5048366;28;20060;-69
2021/08/19 08:01:33;;;;;;;10.70;5.28;;;17.60;83.30;;;;;;5044023;28;20430;-71
2021/08/19 08:03:59;;;;;;;9.88;4.97;;;17.80;84.30;;;;;;5044988;28;20032;-70
2021/08/19 08:06:25;;;;;;;9.98;5.07;;;17.80;83.70;;;;;;5041673;28;20109;-69
2021/08/19 08:08:52;;;;;;;9.75;4.68;;;17.70;83.20;;;;;;5049587;28;20386;-69
2021/08/19 08:11:17;;;;;;;10.15;5.30;;;17.60;83.30;;;;;;5045171;28;20024;-69
2021/08/19 08:13:43;;;;;;;8.13;5.15;;;17.60;83.80;;;;;;5044488;28;20032;-70
2021/08/19 08:16:08;;;;;;;12.80;4.72;;;17.70;84.00;;;;;;5040717;28;20096;-69
2021/08/19 08:18:34;;;;;;;10.98;4.85;;;17.60;83.80;;;;;;5047337;28;20067;-71
2021/08/19 08:21:02;;;;;;;11.27;4.65;;;17.50;84.20;;;;;;5044873;28;20481;-70
2021/08/19 08:23:32;;;;;;;11.63;5.03;;;17.50;84.60;;;;;;5043888;28;20127;-69
2021/08/19 08:25:58;;;;;;;8.27;4.50;;;17.40;84.20;;;;;;5040004;28;20711;-69
2021/08/19 08:28:28;;;;;;;8.02;4.35;;;17.40;83.90;;;;;;5046003;28;20286;-69
2021/08/19 08:30:54;;;;;;;9.10;4.72;;;17.30;83.70;;;;;;5043773;28;20110;-70
2021/08/19 08:33:20;;;;;;;5.97;4.07;;;17.50;83.00;;;;;;5044371;28;20430;-70
2021/08/19 08:35:46;;;;;;;9.43;4.97;;;17.60;82.80;;;;;;5047774;28;20045;-70
2021/08/19 08:38:14;;;;;;;8.90;4.53;;;17.70;82.50;;;;;;5044915;28;20052;-69
2021/08/19 08:40:42;;;;;;;13.07;4.72;;;17.90;82.10;;;;;;5045709;28;20037;-71
2021/08/19 08:43:09;;;;;;;7.97;4.22;;;18.00;81.60;;;;;;5044278;28;20033;-71
2021/08/19 08:45:39;;;;;;;10.02;4.35;;;18.30;80.90;;;;;;5026666;28;20147;-69
2021/08/19 08:48:22;;;;;;;9.77;5.18;;;18.70;80.60;;;;;;5044199;28;20025;-69
2021/08/19 08:50:51;;;;;;;10.82;5.03;;;19.00;78.90;;;;;;5045600;28;20154;-69
2021/08/19 08:53:17;;;;;;;8.07;4.95;;;19.00;78.60;;;;;;5044235;28;20087;-70
2021/08/19 08:55:44;;;;;;;9.52;4.43;;;19.00;77.90;;;;;;5042948;28;20507;-68
2021/08/19 08:58:11;;;;;;;8.35;4.13;;;18.90;77.50;;;;;;5044149;28;20043;-70
2021/08/19 09:00:40;;;;;;;9.32;4.57;;;19.00;77.70;;;;;;5043990;28;20137;-69
2021/08/19 09:03:10;;;;;;;7.50;4.95;;;19.00;77.90;;;;;;5040884;28;20366;-69
2021/08/19 09:05:43;;;;;;;10.05;4.72;;;18.80;78.00;;;;;;5044091;28;20035;-71
2021/08/19 09:08:27;;;;;;;9.35;5.38;;;18.80;78.70;;;;;;5041634;28;20043;-70
2021/08/19 09:11:01;;;;;;;13.93;5.00;;;18.50;78.80;;;;;;5046365;28;20359;-68
2021/08/19 09:13:29;;;;;;;8.43;4.88;;;18.30;79.70;;;;;;5044830;28;20069;-70
2021/08/19 09:16:11;;;;;;;9.13;4.70;;;18.40;80.80;;;;;;5048833;28;20166;-69
2021/08/19 09:18:37;;;;;;;10.73;5.15;;;18.40;80.30;;;;;;5042807;28;20450;-70
2021/08/19 09:21:20;;;;;;;8.52;5.45;;;18.50;80.10;;;;;;5050067;28;20041;-70
2021/08/19 09:23:45;;;;;;;10.65;5.18;;;18.70;78.80;;;;;;5042710;28;20029;-69
2021/08/19 09:26:11;;;;;;;8.52;5.00;;;18.90;78.00;;;;;;5043786;28;20047;-72
2021/08/19 09:28:36;;;;;;;9.00;5.43;;;19.00;78.50;;;;;;5044292;28;20092;-70
2021/08/19 09:31:07;;;;;;;8.93;6.10;;;19.00;78.00;;;;;;5044543;28;20073;-69
2021/08/19 09:33:36;;;;;;;;;;;19.00;78.10;;;;;;5044457;28;20475;-69
2021/08/19 09:36:06;;;;;;;9.65;5.90;;;19.00;78.80;;;;;;5044006;28;20056;-70
2021/08/19 09:38:43;;;;;;;12.02;6.50;;;18.90;79.50;;;;;;5048342;28;20032;-68
2021/08/19 09:41:16;;;;;;;9.32;5.90;;;18.80;79.10;;;;;;5044869;28;20040;-71
2021/08/19 09:43:46;;;;;;;9.77;5.80;;;19.00;79.50;;;;;;5027122;28;20188;-70
2021/08/19 09:46:14;;;;;;;10.32;5.50;;;19.20;77.20;;;;;;5045255;28;20100;-70
2021/08/19 09:48:44;;;;;;;10.25;5.20;;;19.10;77.50;;;;;;5027237;28;20021;-69
2021/08/19 09:51:16;;;;;;;8.07;4.88;;;19.40;77.00;;;;;;5027155;28;20109;-69
2021/08/19 09:53:46;;;;;;;9.10;5.28;;;19.30;76.10;;;;;;5044018;28;20537;-69
2021/08/19 09:56:13;;;;;;;7.55;5.15;;;19.50;76.60;;;;;;5043045;28;20428;-69
2021/08/19 09:58:39;;;;;;;7.80;4.82;;;19.50;76.90;;;;;;5043908;28;20066;-71
2021/08/19 10:01:05;;;;;;;7.38;4.38;;;19.70;76.40;;;;;;5042597;28;20070;-71
2021/08/19 10:03:31;;;;;;;8.55;4.85;;;20.20;73.70;;;;;;5048166;28;20088;-70
2021/08/19 10:05:57;;;;;;;9.05;4.53;;;20.10;73.20;;;;;;5042093;28;20642;-70
2021/08/19 10:08:23;;;;;;;7.05;3.78;;;19.80;73.80;;;;;;5044204;28;20032;-69
2021/08/19 10:10:55;;;;;;;7.43;3.95;;;20.00;74.10;;;;;;5044578;28;20263;-69
2021/08/19 10:13:22;;;;;;;8.93;3.78;;;19.70;72.90;;;;;;5043984;28;20029;-70
2021/08/19 10:15:49;;;;;;;9.35;4.32;;;19.60;73.80;;;;;;5043251;28;20037;-70
2021/08/19 10:18:20;;;;;;;7.10;3.95;;;19.50;74.30;;;;;;5042857;28;20041;-69
2021/08/19 10:20:54;;;;;;;7.88;3.55;;;19.30;74.80;;;;;;5025046;28;20344;-70
2021/08/19 10:23:21;;;;;;;8.07;3.80;;;19.40;75.40;;;;;;5043214;28;20110;-69
2021/08/19 10:26:03;;;;;;;6.10;3.90;;;19.30;76.20;;;;;;5039485;28;20100;-70
2021/08/19 10:28:51;;;;;;;8.68;4.30;;;19.30;75.80;;;;;;5042602;28;20037;-69
2021/08/19 10:31:43;;;;;;;8.02;4.30;;;19.20;75.50;;;;;;5042068;28;20033;-70
2021/08/19 10:34:13;;;;;;;7.05;3.60;;;19.20;75.90;;;;;;5043619;28;20081;-69
2021/08/19 10:36:38;;;;;;;6.13;3.45;;;19.40;75.50;;;;;;5036939;28;20033;-69
2021/08/19 10:39:19;;;;;;;6.95;4.38;;;19.60;75.50;;;;;;5048562;28;20027;-72
2021/08/19 10:41:52;;;;;;;9.23;4.65;;;19.70;76.80;;;;;;5039219;28;20024;-68
2021/08/19 10:44:26;;;;;;;7.18;4.25;;;19.50;75.70;;;;;;5041717;28;20048;-69
2021/08/19 10:46:54;;;;;;;7.03;4.25;;;19.40;75.60;;;;;;5046410;28;20099;-69
2021/08/19 10:49:31;;;;;;;6.20;4.18;;;19.50;76.00;;;;;;5045681;28;20167;-69
2021/08/19 10:52:09;;;;;;;7.93;5.03;;;19.40;74.20;;;;;;5044240;28;20081;-69
2021/08/19 10:54:43;;;;;;;10.85;4.68;;;19.30;75.80;;;;;;5043499;28;20474;-69
2021/08/19 10:57:24;;;;;;;8.98;4.72;;;19.10;76.10;;;;;;5040393;28;20053;-69
2021/08/19 10:59:57;;;;;;;8.10;5.25;;;19.10;77.20;;;;;;5048769;28;20404;-69
2021/08/19 11:02:48;;;;;;;8.48;4.60;;;19.00;77.50;;;;;;5046255;28;20037;-70
2021/08/19 11:05:25;;;;;;;11.90;4.88;;;19.30;79.10;;;;;;5042552;28;20033;-70
2021/08/19 11:07:53;;;;;;;9.80;4.95;;;19.40;78.10;;;;;;5046079;28;20516;-69
2021/08/19 11:10:31;;;;;;;9.27;5.20;;;19.30;76.40;;;;;;5050387;28;20040;-69
2021/08/19 11:13:11;;;;;;;7.35;4.88;;;19.30;76.70;;;;;;5042862;28;20036;-70
2021/08/19 11:15:50;;;;;;;10.15;4.65;;;19.50;77.30;;;;;;5047221;28;20040;-70
2021/08/19 11:18:29;;;;;;;9.70;5.18;;;19.60;77.20;;;;;;5044364;28;20040;-69
2021/08/19 11:20:55;;;;;;;8.55;4.93;;;19.50;78.30;;;;;;5043990;28;20021;-69
2021/08/19 11:23:36;;;;;;;11.63;6.75;;;19.30;79.10;;;;;;5045614;28;20059;-71
2021/08/19 11:26:10;;;;;;;9.50;5.97;;;18.90;80.30;;;;;;5043321;28;20443;-69
2021/08/19 11:28:42;;;;;;;9.18;6.05;;;18.70;81.60;;;;;;5044285;28;20477;-69
2021/08/19 11:31:16;;;;;;;10.85;6.53;;;18.60;81.80;;;;;;5046652;28;20040;-69
2021/08/19 11:33:43;;;;;;;11.00;7.93;;;18.60;83.50;;;;;;5045445;28;20037;-70
2021/08/19 11:36:09;;;;;;;10.95;7.57;;;18.40;84.70;;;;;;5044923;28;20029;-71
2021/08/19 11:38:35;;;;;;;9.00;6.90;;;18.50;84.80;;;;;;5044217;28;20029;-70
2021/08/19 11:41:15;;;;;;;8.70;5.88;;;18.50;84.60;;;;;;5045678;28;20447;-71
2021/08/19 11:43:42;;;;;;;11.70;6.47;;;18.60;84.10;;;;;;5043477;28;20021;-69
2021/08/19 11:46:20;;;;;;;8.70;6.28;;;18.80;84.00;;;;;;5046195;28;20056;-71
2021/08/19 11:48:49;;;;;;;10.55;7.45;;;18.80;84.50;;;;;;5045491;28;20040;-68
2021/08/19 11:51:28;;;;;;;8.93;6.90;;;18.90;85.00;;;;;;5045773;28;20025;-69
2021/08/19 11:53:56;;;;;;;7.80;5.38;;;18.70;85.20;;;;;;5043913;28;20025;-71
2021/08/19 11:56:24;;;;;;;7.72;4.53;;;18.60;84.40;;;;;;5041420;28;20178;-72
2021/08/19 11:58:52;;;;;;;7.05;4.50;;;18.60;83.80;;;;;;5044170;28;20104;-70
2021/08/19 12:01:21;;;;;;;8.32;4.80;;;18.40;84.20;;;;;;5043304;28;20021;-69
2021/08/19 12:03:47;;;;;;;7.70;3.90;;;18.50;84.00;;;;;;5038391;28;20040;-69
2021/08/19 12:06:14;;;;;;;6.35;4.00;;;18.40;85.10;;;;;;5045246;28;20081;-69
2021/08/19 12:08:55;;;;;;;6.65;4.18;;;18.10;87.90;;;;;;5045044;28;20029;-70
2021/08/19 12:11:30;;;;;;;5.93;3.47;;;17.90;90.00;;;;;;5045324;28;20025;-69
2021/08/19 12:13:57;;;;;;;5.75;3.63;;;17.70;90.30;;;;;;5043340;28;20028;-69
2021/08/19 12:16:27;;;;;;;5.80;3.70;;;17.50;91.00;;;;;;5044734;28;20200;-69
2021/08/19 12:19:11;;;;;;;6.82;4.05;;;17.30;92.10;;;;;;5043507;28;20108;-69
2021/08/19 12:21:40;;;;;;;6.95;4.18;;;17.30;92.20;;;;;;5047688;28;20028;-69
2021/08/19 12:24:19;;;;;;;7.65;4.20;;;17.30;92.30;;;;;;5040210;28;20060;-69
2021/08/19 12:27:11;;;;;;;8.90;4.47;;;17.50;92.20;;;;;;5044151;28;20572;-68
2021/08/19 12:29:49;;;;;;;8.55;4.13;;;17.30;92.60;;;;;;5024786;28;20109;-69
2021/08/19 12:32:32;;;;;;;6.20;4.20;;;17.30;93.40;;;;;;5043532;28;20050;-69
2021/08/19 12:35:09;;;;;;;5.78;4.10;;;17.50;93.70;;;;;;5043819;28;20031;-69
2021/08/19 12:37:37;;;;;;;7.93;4.80;;;17.30;93.30;;;;;;5043311;28;20037;-69
2021/08/19 12:40:14;;;;;;;8.02;5.25;;;17.10;94.30;;;;;;5043984;28;20029;-69
2021/08/19 12:42:41;;;;;;;7.13;5.18;;;17.30;94.10;;;;;;5044152;28;20107;-69
2021/08/19 12:45:10;;;;;;;7.43;5.20;;;17.10;94.50;;;;;;5043599;28;20029;-69